createdAt,value
2022-08-17T00:02:26.614Z,84.38
2022-08-17T00:04:55.301Z,83.71
2022-08-17T00:07:23.148Z,83.90
2022-08-17T00:09:50.541Z,84.49
2022-08-17T00:12:41.605Z,83.52
2022-08-17T00:15:10.682Z,84.00
2022-08-17T00:17:38.421Z,84.03
2022-08-17T00:20:06.522Z,84.64
2022-08-17T00:22:36.312Z,84.92
2022-08-17T00:25:07.303Z,84.56
2022-08-17T00:27:35.578Z,85.02
2022-08-17T00:30:05.186Z,84.64
2022-08-17T00:33:23.009Z,84.85
2022-08-17T00:35:33.328Z,84.80
2022-08-17T00:38:00.664Z,84.53
2022-08-17T00:40:44.548Z,85.07
2022-08-17T00:43:30.479Z,85.34
2022-08-17T00:45:58.461Z,84.83
2022-08-17T00:48:29.945Z,84.77
2022-08-17T00:51:16.561Z,84.85
2022-08-17T00:53:48.044Z,84.69
2022-08-17T00:56:19.402Z,85.70
2022-08-17T00:58:46.852Z,86.42
2022-08-17T01:01:21.179Z,86.15
2022-08-17T01:03:50.616Z,86.48
2022-08-17T01:06:17.931Z,86.25
2022-08-17T01:08:45.404Z,86.97
2022-08-17T01:11:12.989Z,87.28
2022-08-17T01:13:42.229Z,87.71
2022-08-17T01:16:26.010Z,88.03
2022-08-17T01:18:55.146Z,88.56
2022-08-17T01:21:44.077Z,88.63
2022-08-17T01:24:11.325Z,89.24
2022-08-17T01:26:39.370Z,89.42
2022-08-17T01:29:06.743Z,89.49
2022-08-17T01:31:40.106Z,89.88
2022-08-17T01:34:09.596Z,90.24
2022-08-17T01:36:37.957Z,90.27
2022-08-17T01:39:06.299Z,90.49
2022-08-17T01:41:34.468Z,90.58
2022-08-17T01:44:02.929Z,90.75
2022-08-17T01:46:33.483Z,90.88
2022-08-17T01:49:01.235Z,91.09
2022-08-17T01:51:33.128Z,90.73
2022-08-17T01:54:03.474Z,90.96
2022-08-17T01:56:31.006Z,91.84
2022-08-17T01:58:58.510Z,91.99
2022-08-17T02:01:27.635Z,91.77
2022-08-17T02:04:00.977Z,91.96
2022-08-17T02:06:31.387Z,92.35
2022-08-17T02:09:02.231Z,92.70
2022-08-17T02:11:33.287Z,92.42
2022-08-17T02:14:03.334Z,92.34
2022-08-17T02:16:37.110Z,91.89
2022-08-17T02:19:07.031Z,91.83
2022-08-17T02:21:36.277Z,91.88
2022-08-17T02:24:04.509Z,91.44
2022-08-17T02:26:32.751Z,91.18
2022-08-17T02:29:00.154Z,91.32
2022-08-17T02:31:27.394Z,91.44
2022-08-17T02:34:00.243Z,91.32
2022-08-17T02:36:33.272Z,91.26
2022-08-17T02:39:10.802Z,90.86
2022-08-17T02:41:38.446Z,91.09
2022-08-17T02:44:06.258Z,91.23
2022-08-17T02:46:33.644Z,91.13
2022-08-17T02:49:04.384Z,91.36
2022-08-17T02:51:31.740Z,91.32
2022-08-17T02:54:02.210Z,91.15
2022-08-17T02:56:46.315Z,91.53
2022-08-17T02:59:14.680Z,91.71
2022-08-17T03:01:42.163Z,92.17
2022-08-17T03:04:09.620Z,92.13
2022-08-17T03:06:37.926Z,92.54
2022-08-17T03:09:05.354Z,92.38
2022-08-17T03:11:33.191Z,92.03
2022-08-17T03:14:00.511Z,91.56
2022-08-17T03:16:27.809Z,91.61
2022-08-17T03:18:55.169Z,91.58
2022-08-17T03:21:22.483Z,91.70
2022-08-17T03:23:49.861Z,91.60
2022-08-17T03:26:22.388Z,91.55
2022-08-17T03:28:49.713Z,91.50
2022-08-17T03:31:18.459Z,91.10
2022-08-17T03:33:45.777Z,91.47
2022-08-17T03:36:13.225Z,91.53
2022-08-17T03:38:40.484Z,91.41
2022-08-17T03:41:08.911Z,91.31
2022-08-17T03:43:36.186Z,91.31
2022-08-17T03:46:28.178Z,91.44
2022-08-17T03:49:26.877Z,91.13
2022-08-17T03:52:12.712Z,90.59
2022-08-17T03:54:59.040Z,90.70
2022-08-17T03:57:26.346Z,90.87
2022-08-17T03:59:54.561Z,90.92
2022-08-17T04:02:24.922Z,90.71
2022-08-17T04:04:52.483Z,90.18
2022-08-17T04:07:20.870Z,89.60
2022-08-17T04:09:48.225Z,89.40
2022-08-17T04:12:21.515Z,89.84
2022-08-17T04:14:53.365Z,90.16
2022-08-17T04:17:23.252Z,89.69
2022-08-17T04:19:50.599Z,90.04
2022-08-17T04:22:31.183Z,90.09
2022-08-17T04:25:21.932Z,89.90
2022-08-17T04:27:49.232Z,89.48
2022-08-17T04:30:17.066Z,88.84
2022-08-17T04:33:12.552Z,87.83
2022-08-17T04:35:42.089Z,88.00
2022-08-17T04:38:10.882Z,88.62
2022-08-17T04:40:56.770Z,88.43
2022-08-17T04:43:24.747Z,87.85
2022-08-17T04:45:55.239Z,86.82
2022-08-17T04:48:29.782Z,86.12
2022-08-17T04:51:16.264Z,85.80
2022-08-17T04:53:44.888Z,85.75
2022-08-17T04:56:16.908Z,85.65
2022-08-17T04:58:48.507Z,86.00
2022-08-17T05:01:23.172Z,85.66
2022-08-17T05:03:53.271Z,84.51
2022-08-17T05:06:20.819Z,84.28
2022-08-17T05:08:48.198Z,83.94
2022-08-17T05:11:15.874Z,83.27
2022-08-17T05:13:43.491Z,82.36
2022-08-17T05:16:11.002Z,83.17
2022-08-17T05:18:39.147Z,82.48
2022-08-17T05:21:06.902Z,82.60
2022-08-17T05:23:42.020Z,81.88
2022-08-17T05:26:26.319Z,81.89
2022-08-17T05:28:58.504Z,81.24
2022-08-17T05:31:27.645Z,80.66
2022-08-17T05:33:55.077Z,80.25
2022-08-17T05:36:42.199Z,80.17
2022-08-17T05:39:16.368Z,79.81
2022-08-17T05:41:46.687Z,79.74
2022-08-17T05:44:14.466Z,80.10
2022-08-17T05:46:42.590Z,79.29
2022-08-17T05:49:19.043Z,79.29
2022-08-17T05:52:08.215Z,77.85
2022-08-17T05:54:49.238Z,78.70
2022-08-17T05:57:34.042Z,78.42
2022-08-17T06:00:05.612Z,77.88
2022-08-17T06:02:57.589Z,78.09
2022-08-17T06:05:41.974Z,77.83
2022-08-17T06:08:27.066Z,78.15
2022-08-17T06:11:00.648Z,77.59
2022-08-17T06:13:44.903Z,76.42
2022-08-17T06:16:28.268Z,77.07
2022-08-17T06:19:24.543Z,77.19
2022-08-17T06:21:53.534Z,77.25
2022-08-17T06:24:30.048Z,75.42
2022-08-17T06:26:59.702Z,75.62
2022-08-17T06:29:39.223Z,75.07
2022-08-17T06:32:08.574Z,75.73
2022-08-17T06:34:37.496Z,75.96
2022-08-17T06:37:19.097Z,73.90
2022-08-17T06:39:55.495Z,73.74
2022-08-17T06:42:58.832Z,75.20
2022-08-17T06:45:41.853Z,72.20
2022-08-17T06:48:25.398Z,73.00
2022-08-17T06:50:55.123Z,73.18
2022-08-17T06:53:45.717Z,69.21
2022-08-17T06:56:22.051Z,68.14
2022-08-17T06:58:49.993Z,68.72
2022-08-17T07:01:21.206Z,67.39
2022-08-17T07:03:55.957Z,64.98
2022-08-17T07:06:38.099Z,67.36
2022-08-17T07:09:16.473Z,66.82
2022-08-17T07:11:55.385Z,65.52
2022-08-17T07:14:36.588Z,66.98
2022-08-17T07:17:08.170Z,67.62
2022-08-17T07:19:39.767Z,63.13
2022-08-17T07:22:57.590Z,64.64
2022-08-17T07:25:22.606Z,64.62
2022-08-17T07:27:52.876Z,63.38
2022-08-17T07:30:21.402Z,59.16
2022-08-17T07:32:59.702Z,57.49
2022-08-17T07:35:37.841Z,60.13
2022-08-17T07:38:25.221Z,59.61
2022-08-17T07:41:03.489Z,60.70
2022-08-17T07:43:41.996Z,60.46
2022-08-17T07:47:00.371Z,58.37
2022-08-17T07:49:39.367Z,56.12
2022-08-17T07:52:51.910Z,57.92
2022-08-17T07:55:31.901Z,54.49
2022-08-17T07:58:00.130Z,56.17
2022-08-17T08:00:32.079Z,58.13
2022-08-17T08:03:23.739Z,60.28
2022-08-17T08:05:56.449Z,62.00
2022-08-17T08:08:34.083Z,61.94
2022-08-17T08:11:04.325Z,60.21
2022-08-17T08:13:32.409Z,60.48
2022-08-17T08:16:27.139Z,62.79
2022-08-17T08:18:59.432Z,61.41
2022-08-17T08:21:37.225Z,61.53
2022-08-17T08:24:13.085Z,60.84
2022-08-17T08:26:56.921Z,57.47
2022-08-17T08:30:06.289Z,55.96
2022-08-17T08:32:46.544Z,50.91
2022-08-17T08:35:37.006Z,53.06
2022-08-17T08:38:29.320Z,48.60
2022-08-17T08:41:08.675Z,51.22
2022-08-17T08:44:14.637Z,54.46
2022-08-17T08:46:48.312Z,53.30
2022-08-17T08:49:18.307Z,57.23
2022-08-17T08:51:48.646Z,58.23
2022-08-17T08:54:44.414Z,58.49
2022-08-17T08:57:34.311Z,56.17
2022-08-17T09:00:10.314Z,59.37
2022-08-17T09:02:43.311Z,59.64
2022-08-17T09:05:26.192Z,52.77
2022-08-17T09:08:24.599Z,46.92
2022-08-17T09:11:18.905Z,46.72
2022-08-17T09:14:21.769Z,45.83
2022-08-17T09:17:13.831Z,50.87
2022-08-17T09:19:54.416Z,52.58
2022-08-17T09:22:30.562Z,44.05
2022-08-17T09:25:12.261Z,39.16
2022-08-17T09:28:03.756Z,36.44
2022-08-17T09:30:45.537Z,33.60
2022-08-17T09:33:15.198Z,31.86
2022-08-17T09:35:51.249Z,30.02
2022-08-17T09:38:31.750Z,28.18
2022-08-17T09:41:26.615Z,28.08
2022-08-17T09:44:23.332Z,27.52
2022-08-17T09:47:01.120Z,27.59
2022-08-17T09:49:31.620Z,28.37
2022-08-17T09:52:01.090Z,29.40
2022-08-17T09:54:39.495Z,31.44
2022-08-17T09:57:39.976Z,33.00
2022-08-17T10:00:13.308Z,32.87
2022-08-17T10:02:53.641Z,35.71
2022-08-17T10:05:37.759Z,39.65
2022-08-17T10:08:15.461Z,43.55
2022-08-17T10:10:56.454Z,44.33
2022-08-17T10:13:53.072Z,35.68
2022-08-17T10:16:38.857Z,32.82
2022-08-17T10:19:34.318Z,28.50
2022-08-17T10:22:34.508Z,28.38
2022-08-17T10:25:48.653Z,29.00
2022-08-17T10:28:20.998Z,28.19
2022-08-17T10:31:10.403Z,28.48
2022-08-17T10:34:20.620Z,27.86
2022-08-17T10:36:48.420Z,27.53
2022-08-17T10:39:22.798Z,28.19
2022-08-17T10:41:52.693Z,27.78
2022-08-17T10:44:37.347Z,28.04
2022-08-17T10:47:13.109Z,26.82
2022-08-17T10:49:47.624Z,27.13
2022-08-17T10:52:26.199Z,25.61
2022-08-17T10:54:59.114Z,25.42
2022-08-17T10:57:32.239Z,27.11
2022-08-17T11:00:00.004Z,27.21
2022-08-17T11:02:31.625Z,26.80
2022-08-17T11:05:14.075Z,25.96
2022-08-17T11:07:47.744Z,26.09
2022-08-17T11:10:25.126Z,24.90
2022-08-17T11:13:05.689Z,24.93
2022-08-17T11:16:08.277Z,25.65
2022-08-17T11:19:15.580Z,25.30
2022-08-17T11:22:31.267Z,25.50
2022-08-17T11:25:17.985Z,24.97
2022-08-17T11:27:47.177Z,26.19
2022-08-17T11:30:15.620Z,25.32
2022-08-17T11:32:47.773Z,24.81
2022-08-17T11:35:22.134Z,25.07
2022-08-17T11:38:14.073Z,26.27
2022-08-17T11:41:02.365Z,26.96
2022-08-17T11:43:42.930Z,25.63
2022-08-17T11:46:16.059Z,26.48
2022-08-17T11:49:11.371Z,25.90
2022-08-17T11:52:01.022Z,25.97
2022-08-17T11:54:33.210Z,26.59
2022-08-17T11:57:25.367Z,25.89
2022-08-17T11:59:59.094Z,26.65
2022-08-17T12:02:35.398Z,24.68
2022-08-17T12:05:14.371Z,24.76
2022-08-17T12:08:08.554Z,25.36
2022-08-17T12:10:42.060Z,24.11
2022-08-17T12:13:14.906Z,23.39
2022-08-17T12:15:48.732Z,24.51
2022-08-17T12:18:21.278Z,25.06
2022-08-17T12:21:00.288Z,24.13
2022-08-17T12:23:44.136Z,26.01
2022-08-17T12:26:19.432Z,27.57
2022-08-17T12:28:51.864Z,27.88
2022-08-17T12:31:25.820Z,31.47
2022-08-17T12:33:53.166Z,30.23
2022-08-17T12:36:25.335Z,31.20
2022-08-17T12:39:14.630Z,30.62
2022-08-17T12:41:44.012Z,33.65
2022-08-17T12:44:12.190Z,33.38
2022-08-17T12:46:49.005Z,36.06
2022-08-17T12:49:33.151Z,36.08
2022-08-17T12:52:27.087Z,35.70
2022-08-17T12:55:21.281Z,37.42
2022-08-17T12:57:55.799Z,36.08
2022-08-17T13:00:34.979Z,36.91
2022-08-17T13:03:06.000Z,36.36
2022-08-17T13:05:38.298Z,36.45
2022-08-17T13:08:20.267Z,36.89
2022-08-17T13:10:55.711Z,32.31
2022-08-17T13:13:26.702Z,34.17
2022-08-17T13:15:59.135Z,34.33
2022-08-17T13:18:49.029Z,35.14
2022-08-17T13:21:19.692Z,36.25
2022-08-17T13:24:03.639Z,36.92
2022-08-17T13:26:38.457Z,38.70
2022-08-17T13:29:08.434Z,40.17
2022-08-17T13:31:52.691Z,47.59
2022-08-17T13:34:24.086Z,51.01
2022-08-17T13:37:19.888Z,61.22
2022-08-17T13:39:50.669Z,61.36
2022-08-17T13:42:51.880Z,60.26
2022-08-17T13:45:35.223Z,60.39
2022-08-17T13:48:07.623Z,67.52
2022-08-17T13:50:55.052Z,64.52
2022-08-17T13:53:28.117Z,58.85
2022-08-17T13:56:07.406Z,62.11
2022-08-17T13:59:00.349Z,61.85
2022-08-17T14:01:42.489Z,62.23
2022-08-17T14:04:18.235Z,66.32
2022-08-17T14:07:04.164Z,65.59
2022-08-17T14:09:37.585Z,65.07
2022-08-17T14:12:07.163Z,69.29
2022-08-17T14:14:34.632Z,71.21
2022-08-17T14:17:02.148Z,70.20
2022-08-17T14:19:29.586Z,68.20
2022-08-17T14:21:58.905Z,64.28
2022-08-17T14:24:31.386Z,69.91
2022-08-17T14:26:59.731Z,70.11
2022-08-17T14:29:28.945Z,61.27
2022-08-17T14:31:56.754Z,59.21
2022-08-17T14:34:24.517Z,53.67
2022-08-17T14:36:52.075Z,57.72
2022-08-17T14:39:19.519Z,59.82
2022-08-17T14:41:47.114Z,58.15
2022-08-17T14:44:14.577Z,62.75
2022-08-17T14:46:43.233Z,60.60
2022-08-17T14:49:11.828Z,55.32
2022-08-17T14:51:44.417Z,52.51
2022-08-17T14:54:29.434Z,51.14
2022-08-17T14:57:24.880Z,53.91
2022-08-17T14:59:50.699Z,58.81
2022-08-17T15:02:23.009Z,62.17
2022-08-17T15:05:01.868Z,63.59
2022-08-17T15:07:30.542Z,66.45
2022-08-17T15:10:02.035Z,67.92
2022-08-17T15:12:33.075Z,67.97
2022-08-17T15:15:01.315Z,69.91
2022-08-17T15:17:44.781Z,71.01
2022-08-17T15:20:19.227Z,73.59
2022-08-17T15:22:49.437Z,75.14
2022-08-17T15:25:17.321Z,76.11
2022-08-17T15:27:45.004Z,77.93
2022-08-17T15:30:12.856Z,77.25
2022-08-17T15:32:41.463Z,78.04
2022-08-17T15:35:18.870Z,74.90
2022-08-17T15:37:53.857Z,76.27
2022-08-17T15:40:21.166Z,78.31
2022-08-17T15:42:48.641Z,75.14
2022-08-17T15:45:17.017Z,75.90
2022-08-17T15:47:44.843Z,72.71
2022-08-17T15:50:12.468Z,73.86
2022-08-17T15:52:40.726Z,72.56
2022-08-17T15:55:13.209Z,74.86
2022-08-17T15:57:40.871Z,75.34
2022-08-17T16:00:09.271Z,76.18
2022-08-17T16:03:14.352Z,75.41
2022-08-17T16:05:25.100Z,77.19
2022-08-17T16:07:53.161Z,76.86
2022-08-17T16:10:21.147Z,76.67
2022-08-17T16:12:49.442Z,76.90
2022-08-17T16:15:17.685Z,78.38
2022-08-17T16:17:45.626Z,79.09
2022-08-17T16:20:20.108Z,78.74
2022-08-17T16:22:49.093Z,78.27
2022-08-17T16:25:21.629Z,78.68
2022-08-17T16:27:53.900Z,79.44
2022-08-17T16:30:24.144Z,79.55
2022-08-17T16:32:52.909Z,80.05
2022-08-17T16:35:22.683Z,80.06
2022-08-17T16:37:49.956Z,80.48
2022-08-17T16:40:17.456Z,80.45
2022-08-17T16:42:45.555Z,80.06
2022-08-17T16:45:20.932Z,80.49
2022-08-17T16:47:50.197Z,81.28
2022-08-17T16:50:19.031Z,81.40
2022-08-17T16:52:48.504Z,81.60
2022-08-17T16:55:18.688Z,81.14
2022-08-17T16:57:50.056Z,81.31
2022-08-17T17:00:18.030Z,81.66
2022-08-17T17:02:47.358Z,81.94
2022-08-17T17:05:24.756Z,82.36
2022-08-17T17:08:07.740Z,80.72
2022-08-17T17:10:52.750Z,81.87
2022-08-17T17:13:48.058Z,80.34
2022-08-17T17:16:40.756Z,81.48
2022-08-17T17:19:18.143Z,81.98
2022-08-17T17:22:22.866Z,81.63
2022-08-17T17:25:25.435Z,78.73
2022-08-17T17:28:14.295Z,76.54
2022-08-17T17:30:49.486Z,77.33
2022-08-17T17:33:22.673Z,75.96
2022-08-17T17:35:55.839Z,77.79
2022-08-17T17:38:29.148Z,76.65
2022-08-17T17:41:02.999Z,72.65
2022-08-17T17:43:40.636Z,71.55
2022-08-17T17:46:29.288Z,75.90
2022-08-17T17:48:57.527Z,77.50
2022-08-17T17:52:11.070Z,78.92
2022-08-17T17:55:06.025Z,78.48
2022-08-17T17:58:02.608Z,79.64
2022-08-17T18:01:14.640Z,77.98
2022-08-17T18:03:44.997Z,80.69
2022-08-17T18:06:45.361Z,78.87
2022-08-17T18:09:22.760Z,79.58
2022-08-17T18:11:59.922Z,79.89
2022-08-17T18:14:30.128Z,80.30
2022-08-17T18:16:58.319Z,81.15
2022-08-17T18:19:26.865Z,80.69
2022-08-17T18:22:20.614Z,80.31
2022-08-17T18:24:49.698Z,81.43
2022-08-17T18:27:32.183Z,80.23
2022-08-17T18:30:03.430Z,80.95
2022-08-17T18:32:40.044Z,81.31
2022-08-17T18:35:10.393Z,81.49
2022-08-17T18:37:47.582Z,81.53
2022-08-17T18:40:18.436Z,79.27
2022-08-17T18:43:06.189Z,77.56
2022-08-17T18:45:46.488Z,77.96
2022-08-17T18:48:21.400Z,76.60
2022-08-17T18:50:53.324Z,77.63
2022-08-17T18:53:31.726Z,76.50
2022-08-17T18:56:31.573Z,78.81
2022-08-17T18:59:02.088Z,78.92
2022-08-17T19:01:53.533Z,77.92
2022-08-17T19:04:35.159Z,76.31
2022-08-17T19:07:08.896Z,78.25
2022-08-17T19:09:45.468Z,78.36
2022-08-17T19:12:26.908Z,78.21
2022-08-17T19:14:56.006Z,75.88
2022-08-17T19:17:50.116Z,77.89
2022-08-17T19:20:20.195Z,77.15
2022-08-17T19:23:13.109Z,78.24
2022-08-17T19:25:45.388Z,79.29
2022-08-17T19:28:32.756Z,78.64
2022-08-17T19:31:04.905Z,79.23
2022-08-17T19:33:32.368Z,79.05
2022-08-17T19:36:10.368Z,80.03
2022-08-17T19:38:45.967Z,79.99
2022-08-17T19:41:21.904Z,79.27
2022-08-17T19:43:55.265Z,79.61
2022-08-17T19:47:10.476Z,81.11
2022-08-17T19:49:55.750Z,80.99
2022-08-17T19:52:42.433Z,81.00
2022-08-17T19:55:22.363Z,81.48
2022-08-17T19:58:04.889Z,81.51
2022-08-17T20:00:34.099Z,81.68
2022-08-17T20:03:25.553Z,82.36
2022-08-17T20:06:12.175Z,81.85
2022-08-17T20:08:57.071Z,82.25
2022-08-17T20:11:49.470Z,81.75
2022-08-17T20:14:20.660Z,81.77
2022-08-17T20:16:48.199Z,81.77
2022-08-17T20:19:28.015Z,82.24
2022-08-17T20:22:05.992Z,81.91
2022-08-17T20:24:42.169Z,83.15
2022-08-17T20:27:12.736Z,83.70
2022-08-17T20:29:55.238Z,83.80
2022-08-17T20:32:48.706Z,84.15
2022-08-17T20:35:26.221Z,84.26
2022-08-17T20:38:02.012Z,84.80
2022-08-17T20:40:38.488Z,84.70
2022-08-17T20:43:34.914Z,84.87
2022-08-17T20:46:17.425Z,84.86
2022-08-17T20:48:46.700Z,84.84
2022-08-17T20:51:17.345Z,85.64
2022-08-17T20:53:47.626Z,84.94
2022-08-17T20:56:49.188Z,85.49
2022-08-17T20:59:25.960Z,85.11
2022-08-17T21:02:08.916Z,85.47
2022-08-17T21:04:59.908Z,82.57
2022-08-17T21:07:42.771Z,81.53
2022-08-17T21:10:24.010Z,80.14
2022-08-17T21:12:54.430Z,79.64
2022-08-17T21:15:32.774Z,79.90
2022-08-17T21:18:23.357Z,80.15
2022-08-17T21:21:17.435Z,79.99
2022-08-17T21:24:03.327Z,81.53
2022-08-17T21:27:00.237Z,78.74
2022-08-17T21:29:32.562Z,79.89
2022-08-17T21:32:05.219Z,79.58
2022-08-17T21:34:33.122Z,80.01
2022-08-17T21:37:18.929Z,81.06
2022-08-17T21:39:54.271Z,81.50
2022-08-17T21:42:26.553Z,82.12
2022-08-17T21:44:54.542Z,81.93
2022-08-17T21:47:27.175Z,82.18
2022-08-17T21:49:55.548Z,82.58
2022-08-17T21:52:24.209Z,82.62
2022-08-17T21:55:02.508Z,82.53
2022-08-17T21:57:30.026Z,82.28
2022-08-17T21:59:58.955Z,82.05
2022-08-17T22:02:51.339Z,82.48
2022-08-17T22:05:29.184Z,82.25
2022-08-17T22:08:07.760Z,82.09
2022-08-17T22:10:45.878Z,82.27
2022-08-17T22:13:19.788Z,82.08
2022-08-17T22:15:49.257Z,82.21
2022-08-17T22:18:20.080Z,82.21
2022-08-17T22:20:51.956Z,82.85
2022-08-17T22:23:46.253Z,83.83
2022-08-17T22:26:15.653Z,82.31
2022-08-17T22:28:45.814Z,82.52
2022-08-17T22:31:18.320Z,83.46
2022-08-17T22:34:07.659Z,83.45
2022-08-17T22:36:36.207Z,84.09
2022-08-17T22:39:09.666Z,83.38
2022-08-17T22:41:37.998Z,83.15
2022-08-17T22:44:15.728Z,83.66
2022-08-17T22:47:11.299Z,84.18
2022-08-17T22:49:54.645Z,84.38
2022-08-17T22:52:29.231Z,84.91
2022-08-17T22:55:35.296Z,85.15
2022-08-17T22:58:27.718Z,85.44
2022-08-17T23:00:55.802Z,85.64
2022-08-17T23:03:24.857Z,85.84
2022-08-17T23:06:07.072Z,85.57
2022-08-17T23:08:39.534Z,85.70
2022-08-17T23:11:06.984Z,86.35
2022-08-17T23:13:34.386Z,86.67
2022-08-17T23:16:03.341Z,86.83
2022-08-17T23:18:30.742Z,86.80
2022-08-17T23:20:58.002Z,86.83
2022-08-17T23:23:26.553Z,87.29
2022-08-17T23:25:54.768Z,86.86
2022-08-17T23:28:22.201Z,87.40
2022-08-17T23:30:49.460Z,86.72
2022-08-17T23:33:25.652Z,86.92
2022-08-17T23:35:54.095Z,87.40
2022-08-17T23:38:22.434Z,86.94
2022-08-17T23:40:49.679Z,86.74
2022-08-17T23:43:25.520Z,86.88
2022-08-17T23:45:57.590Z,87.27
2022-08-17T23:48:35.115Z,87.45
2022-08-17T23:51:09.116Z,87.29
2022-08-17T23:53:36.782Z,87.69
2022-08-17T23:56:10.375Z,87.47
2022-08-17T23:58:40.442Z,86.79
